sensor_id;sensor_type;location;lat;lon;timestamp;P1;durP1;ratioP1;P2;durP2;ratioP2
51495;SDS011;37572;52.094;4.870;2023-09-30T00:01:39;15.98;;;7.30;;
51495;SDS011;37572;52.094;4.870;2023-09-30T00:04:05;16.80;;;7.93;;
51495;SDS011;37572;52.094;4.870;2023-09-30T00:06:32;17.13;;;7.97;;
51495;SDS011;37572;52.094;4.870;2023-09-30T00:08:57;15.48;;;8.02;;
51495;SDS011;37572;52.094;4.870;2023-09-30T00:11:22;18.40;;;9.50;;
51495;SDS011;37572;52.094;4.870;2023-09-30T00:13:48;15.90;;;8.00;;
51495;SDS011;37572;52.094;4.870;2023-09-30T00:16:14;17.80;;;8.95;;
51495;SDS011;37572;52.094;4.870;2023-09-30T00:18:42;16.27;;;8.95;;
51495;SDS011;37572;52.094;4.870;2023-09-30T00:21:07;18.33;;;8.07;;
51495;SDS011;37572;52.094;4.870;2023-09-30T00:23:32;16.55;;;8.65;;
51495;SDS011;37572;52.094;4.870;2023-09-30T00:25:58;18.90;;;9.02;;
51495;SDS011;37572;52.094;4.870;2023-09-30T00:28:25;18.60;;;8.55;;
51495;SDS011;37572;52.094;4.870;2023-09-30T00:30:50;16.83;;;8.70;;
51495;SDS011;37572;52.094;4.870;2023-09-30T00:33:15;20.33;;;8.77;;
51495;SDS011;37572;52.094;4.870;2023-09-30T00:35:41;17.67;;;9.50;;
51495;SDS011;37572;52.094;4.870;2023-09-30T00:38:06;17.73;;;10.00;;
51495;SDS011;37572;52.094;4.870;2023-09-30T00:40:31;17.63;;;9.10;;
51495;SDS011;37572;52.094;4.870;2023-09-30T00:42:57;20.98;;;8.75;;
51495;SDS011;37572;52.094;4.870;2023-09-30T00:45:23;14.85;;;8.13;;
51495;SDS011;37572;52.094;4.870;2023-09-30T00:47:48;16.83;;;8.83;;
51495;SDS011;37572;52.094;4.870;2023-09-30T00:50:14;23.75;;;9.25;;
51495;SDS011;37572;52.094;4.870;2023-09-30T00:52:40;17.85;;;8.35;;
51495;SDS011;37572;52.094;4.870;2023-09-30T00:55:06;16.25;;;8.50;;
51495;SDS011;37572;52.094;4.870;2023-09-30T00:57:32;14.88;;;7.90;;
51495;SDS011;37572;52.094;4.870;2023-09-30T00:59:59;20.60;;;9.23;;
51495;SDS011;37572;52.094;4.870;2023-09-30T01:02:26;18.10;;;9.00;;
51495;SDS011;37572;52.094;4.870;2023-09-30T01:04:51;19.05;;;9.95;;
51495;SDS011;37572;52.094;4.870;2023-09-30T01:07:17;21.90;;;9.75;;
51495;SDS011;37572;52.094;4.870;2023-09-30T01:09:43;20.05;;;10.85;;
51495;SDS011;37572;52.094;4.870;2023-09-30T01:12:08;20.73;;;9.57;;
51495;SDS011;37572;52.094;4.870;2023-09-30T01:14:34;20.15;;;9.45;;
51495;SDS011;37572;52.094;4.870;2023-09-30T01:17:00;21.67;;;9.43;;
51495;SDS011;37572;52.094;4.870;2023-09-30T01:19:26;20.60;;;9.82;;
51495;SDS011;37572;52.094;4.870;2023-09-30T01:21:58;18.23;;;9.50;;
51495;SDS011;37572;52.094;4.870;2023-09-30T01:24:30;21.80;;;9.77;;
51495;SDS011;37572;52.094;4.870;2023-09-30T01:26:57;17.88;;;9.30;;
51495;SDS011;37572;52.094;4.870;2023-09-30T01:29:23;19.23;;;10.43;;
51495;SDS011;37572;52.094;4.870;2023-09-30T01:31:51;19.60;;;10.15;;
51495;SDS011;37572;52.094;4.870;2023-09-30T01:34:16;19.42;;;10.05;;
51495;SDS011;37572;52.094;4.870;2023-09-30T01:36:42;22.70;;;11.85;;
51495;SDS011;37572;52.094;4.870;2023-09-30T01:39:09;17.17;;;9.98;;
51495;SDS011;37572;52.094;4.870;2023-09-30T01:41:35;20.02;;;10.57;;
51495;SDS011;37572;52.094;4.870;2023-09-30T01:44:04;22.17;;;11.32;;
51495;SDS011;37572;52.094;4.870;2023-09-30T01:46:30;23.70;;;10.65;;
51495;SDS011;37572;52.094;4.870;2023-09-30T01:48:55;23.35;;;11.55;;
51495;SDS011;37572;52.094;4.870;2023-09-30T01:51:20;24.60;;;12.07;;
51495;SDS011;37572;52.094;4.870;2023-09-30T01:53:47;22.85;;;12.30;;
51495;SDS011;37572;52.094;4.870;2023-09-30T01:56:13;21.30;;;10.48;;
51495;SDS011;37572;52.094;4.870;2023-09-30T01:58:38;23.52;;;12.25;;
51495;SDS011;37572;52.094;4.870;2023-09-30T02:01:04;25.57;;;12.40;;
51495;SDS011;37572;52.094;4.870;2023-09-30T02:03:29;28.50;;;12.90;;
51495;SDS011;37572;52.094;4.870;2023-09-30T02:05:55;24.67;;;13.57;;
51495;SDS011;37572;52.094;4.870;2023-09-30T02:08:21;24.38;;;12.57;;
51495;SDS011;37572;52.094;4.870;2023-09-30T02:10:47;25.17;;;12.75;;
51495;SDS011;37572;52.094;4.870;2023-09-30T02:13:12;25.75;;;12.85;;
51495;SDS011;37572;52.094;4.870;2023-09-30T02:15:41;28.00;;;12.93;;
51495;SDS011;37572;52.094;4.870;2023-09-30T02:18:06;24.75;;;12.70;;
51495;SDS011;37572;52.094;4.870;2023-09-30T02:20:32;27.15;;;14.88;;
51495;SDS011;37572;52.094;4.870;2023-09-30T02:22:57;28.93;;;14.40;;
51495;SDS011;37572;52.094;4.870;2023-09-30T02:25:24;29.25;;;14.95;;
51495;SDS011;37572;52.094;4.870;2023-09-30T02:27:49;33.63;;;15.98;;
51495;SDS011;37572;52.094;4.870;2023-09-30T02:30:15;29.33;;;14.68;;
51495;SDS011;37572;52.094;4.870;2023-09-30T02:32:41;30.75;;;13.50;;
51495;SDS011;37572;52.094;4.870;2023-09-30T02:35:07;25.63;;;14.25;;
51495;SDS011;37572;52.094;4.870;2023-09-30T02:37:35;27.52;;;13.93;;
51495;SDS011;37572;52.094;4.870;2023-09-30T02:40:02;29.27;;;15.57;;
51495;SDS011;37572;52.094;4.870;2023-09-30T02:42:30;30.17;;;14.80;;
51495;SDS011;37572;52.094;4.870;2023-09-30T02:44:55;31.47;;;16.50;;
51495;SDS011;37572;52.094;4.870;2023-09-30T02:47:20;27.97;;;13.93;;
51495;SDS011;37572;52.094;4.870;2023-09-30T02:49:46;25.77;;;14.10;;
51495;SDS011;37572;52.094;4.870;2023-09-30T02:52:11;32.03;;;14.93;;
51495;SDS011;37572;52.094;4.870;2023-09-30T02:54:37;33.22;;;15.20;;
51495;SDS011;37572;52.094;4.870;2023-09-30T02:57:03;27.77;;;14.40;;
51495;SDS011;37572;52.094;4.870;2023-09-30T02:59:29;29.77;;;14.35;;
51495;SDS011;37572;52.094;4.870;2023-09-30T03:01:54;30.17;;;15.68;;
51495;SDS011;37572;52.094;4.870;2023-09-30T03:04:21;29.65;;;14.95;;
51495;SDS011;37572;52.094;4.870;2023-09-30T03:06:51;30.08;;;15.00;;
51495;SDS011;37572;52.094;4.870;2023-09-30T03:09:16;31.55;;;16.00;;
51495;SDS011;37572;52.094;4.870;2023-09-30T03:11:41;32.77;;;17.17;;
51495;SDS011;37572;52.094;4.870;2023-09-30T03:14:11;34.70;;;16.67;;
51495;SDS011;37572;52.094;4.870;2023-09-30T03:16:38;36.33;;;17.15;;
51495;SDS011;37572;52.094;4.870;2023-09-30T03:19:06;34.53;;;16.70;;
51495;SDS011;37572;52.094;4.870;2023-09-30T03:21:34;35.20;;;16.58;;
51495;SDS011;37572;52.094;4.870;2023-09-30T03:24:00;30.88;;;16.23;;
51495;SDS011;37572;52.094;4.870;2023-09-30T03:26:29;32.25;;;16.23;;
51495;SDS011;37572;52.094;4.870;2023-09-30T03:28:55;33.00;;;16.20;;
51495;SDS011;37572;52.094;4.870;2023-09-30T03:31:20;35.78;;;16.17;;
51495;SDS011;37572;52.094;4.870;2023-09-30T03:33:47;36.00;;;18.73;;
51495;SDS011;37572;52.094;4.870;2023-09-30T03:36:16;37.92;;;17.98;;
51495;SDS011;37572;52.094;4.870;2023-09-30T03:38:41;32.50;;;15.88;;
51495;SDS011;37572;52.094;4.870;2023-09-30T03:41:07;36.03;;;17.52;;
51495;SDS011;37572;52.094;4.870;2023-09-30T03:43:33;29.52;;;15.70;;
51495;SDS011;37572;52.094;4.870;2023-09-30T03:46:01;38.35;;;18.27;;
51495;SDS011;37572;52.094;4.870;2023-09-30T03:48:27;34.92;;;17.95;;
51495;SDS011;37572;52.094;4.870;2023-09-30T03:50:52;37.27;;;18.00;;
51495;SDS011;37572;52.094;4.870;2023-09-30T03:53:18;37.03;;;17.85;;
51495;SDS011;37572;52.094;4.870;2023-09-30T03:55:44;35.30;;;16.73;;
51495;SDS011;37572;52.094;4.870;2023-09-30T03:58:10;37.83;;;17.73;;
51495;SDS011;37572;52.094;4.870;2023-09-30T04:00:37;37.95;;;18.10;;
51495;SDS011;37572;52.094;4.870;2023-09-30T04:03:03;37.63;;;19.85;;
51495;SDS011;37572;52.094;4.870;2023-09-30T04:05:28;38.00;;;17.92;;
51495;SDS011;37572;52.094;4.870;2023-09-30T04:07:57;34.78;;;18.15;;
51495;SDS011;37572;52.094;4.870;2023-09-30T04:10:23;44.25;;;18.80;;
51495;SDS011;37572;52.094;4.870;2023-09-30T04:12:48;41.40;;;19.73;;
51495;SDS011;37572;52.094;4.870;2023-09-30T04:15:14;35.92;;;18.65;;
51495;SDS011;37572;52.094;4.870;2023-09-30T04:17:40;41.05;;;18.85;;
51495;SDS011;37572;52.094;4.870;2023-09-30T04:20:06;40.55;;;19.02;;
51495;SDS011;37572;52.094;4.870;2023-09-30T04:22:41;42.03;;;19.13;;
51495;SDS011;37572;52.094;4.870;2023-09-30T04:25:06;38.28;;;19.33;;
51495;SDS011;37572;52.094;4.870;2023-09-30T04:27:35;36.47;;;19.02;;
51495;SDS011;37572;52.094;4.870;2023-09-30T04:30:02;35.42;;;18.58;;
51495;SDS011;37572;52.094;4.870;2023-09-30T04:32:33;41.90;;;20.23;;
51495;SDS011;37572;52.094;4.870;2023-09-30T04:34:59;40.63;;;19.23;;
51495;SDS011;37572;52.094;4.870;2023-09-30T04:37:25;41.50;;;19.20;;
51495;SDS011;37572;52.094;4.870;2023-09-30T04:39:50;38.85;;;21.33;;
51495;SDS011;37572;52.094;4.870;2023-09-30T04:42:15;45.87;;;21.13;;
51495;SDS011;37572;52.094;4.870;2023-09-30T04:44:42;41.58;;;19.05;;
51495;SDS011;37572;52.094;4.870;2023-09-30T04:47:08;42.25;;;19.42;;
51495;SDS011;37572;52.094;4.870;2023-09-30T04:49:34;36.80;;;20.25;;
51495;SDS011;37572;52.094;4.870;2023-09-30T04:51:59;38.67;;;19.83;;
51495;SDS011;37572;52.094;4.870;2023-09-30T04:54:25;43.00;;;19.25;;
51495;SDS011;37572;52.094;4.870;2023-09-30T04:56:50;39.83;;;19.50;;
51495;SDS011;37572;52.094;4.870;2023-09-30T04:59:16;43.10;;;20.13;;
51495;SDS011;37572;52.094;4.870;2023-09-30T05:01:41;41.20;;;20.10;;
51495;SDS011;37572;52.094;4.870;2023-09-30T05:04:07;44.17;;;20.20;;
51495;SDS011;37572;52.094;4.870;2023-09-30T05:06:32;39.92;;;18.17;;
51495;SDS011;37572;52.094;4.870;2023-09-30T05:08:58;43.08;;;19.10;;
51495;SDS011;37572;52.094;4.870;2023-09-30T05:11:24;34.75;;;18.02;;
51495;SDS011;37572;52.094;4.870;2023-09-30T05:13:49;41.17;;;19.98;;
51495;SDS011;37572;52.094;4.870;2023-09-30T05:16:14;37.08;;;19.20;;
51495;SDS011;37572;52.094;4.870;2023-09-30T05:18:41;38.92;;;20.00;;
51495;SDS011;37572;52.094;4.870;2023-09-30T05:21:06;41.40;;;19.52;;
51495;SDS011;37572;52.094;4.870;2023-09-30T05:23:31;43.77;;;20.83;;
51495;SDS011;37572;52.094;4.870;2023-09-30T05:25:57;45.88;;;22.25;;
51495;SDS011;37572;52.094;4.870;2023-09-30T05:28:23;37.33;;;20.02;;
51495;SDS011;37572;52.094;4.870;2023-09-30T05:30:48;40.13;;;20.38;;
51495;SDS011;37572;52.094;4.870;2023-09-30T05:33:15;41.78;;;19.45;;
51495;SDS011;37572;52.094;4.870;2023-09-30T05:35:41;38.65;;;19.88;;
51495;SDS011;37572;52.094;4.870;2023-09-30T05:38:07;40.78;;;21.42;;
51495;SDS011;37572;52.094;4.870;2023-09-30T05:40:33;43.20;;;20.02;;
51495;SDS011;37572;52.094;4.870;2023-09-30T05:42:58;40.08;;;20.40;;
51495;SDS011;37572;52.094;4.870;2023-09-30T05:45:25;43.47;;;20.67;;
51495;SDS011;37572;52.094;4.870;2023-09-30T05:47:51;47.45;;;21.40;;
51495;SDS011;37572;52.094;4.870;2023-09-30T05:50:18;44.17;;;23.00;;
51495;SDS011;37572;52.094;4.870;2023-09-30T05:52:49;41.50;;;20.90;;
51495;SDS011;37572;52.094;4.870;2023-09-30T05:55:15;45.97;;;22.27;;
51495;SDS011;37572;52.094;4.870;2023-09-30T05:57:44;46.75;;;21.90;;
51495;SDS011;37572;52.094;4.870;2023-09-30T06:00:11;46.78;;;23.50;;
51495;SDS011;37572;52.094;4.870;2023-09-30T06:02:53;47.78;;;22.85;;
51495;SDS011;37572;52.094;4.870;2023-09-30T06:05:18;46.53;;;23.87;;
51495;SDS011;37572;52.094;4.870;2023-09-30T06:07:46;55.05;;;26.80;;
51495;SDS011;37572;52.094;4.870;2023-09-30T06:10:12;48.33;;;25.10;;
51495;SDS011;37572;52.094;4.870;2023-09-30T06:12:38;48.08;;;25.23;;
51495;SDS011;37572;52.094;4.870;2023-09-30T06:15:03;45.92;;;26.13;;
51495;SDS011;37572;52.094;4.870;2023-09-30T06:17:29;54.47;;;27.85;;
51495;SDS011;37572;52.094;4.870;2023-09-30T06:19:54;51.63;;;25.37;;
51495;SDS011;37572;52.094;4.870;2023-09-30T06:22:20;50.97;;;25.75;;
51495;SDS011;37572;52.094;4.870;2023-09-30T06:24:46;51.17;;;25.90;;
51495;SDS011;37572;52.094;4.870;2023-09-30T06:27:13;44.72;;;25.60;;
51495;SDS011;37572;52.094;4.870;2023-09-30T06:29:38;52.92;;;27.73;;
51495;SDS011;37572;52.094;4.870;2023-09-30T06:32:07;51.92;;;25.38;;
51495;SDS011;37572;52.094;4.870;2023-09-30T06:34:32;50.63;;;25.70;;
51495;SDS011;37572;52.094;4.870;2023-09-30T06:36:59;53.65;;;27.75;;
51495;SDS011;37572;52.094;4.870;2023-09-30T06:39:25;62.05;;;28.17;;
51495;SDS011;37572;52.094;4.870;2023-09-30T06:41:50;47.57;;;28.93;;
51495;SDS011;37572;52.094;4.870;2023-09-30T06:44:16;53.97;;;26.50;;
51495;SDS011;37572;52.094;4.870;2023-09-30T06:46:41;54.33;;;27.40;;
51495;SDS011;37572;52.094;4.870;2023-09-30T06:49:07;56.47;;;27.55;;
51495;SDS011;37572;52.094;4.870;2023-09-30T06:51:32;50.57;;;27.77;;
51495;SDS011;37572;52.094;4.870;2023-09-30T06:53:57;51.07;;;27.93;;
51495;SDS011;37572;52.094;4.870;2023-09-30T06:56:23;53.10;;;27.23;;
51495;SDS011;37572;52.094;4.870;2023-09-30T06:58:48;46.73;;;26.80;;
51495;SDS011;37572;52.094;4.870;2023-09-30T07:01:16;45.57;;;25.73;;
51495;SDS011;37572;52.094;4.870;2023-09-30T07:03:42;39.35;;;25.17;;
51495;SDS011;37572;52.094;4.870;2023-09-30T07:06:08;39.63;;;24.00;;
51495;SDS011;37572;52.094;4.870;2023-09-30T07:08:33;32.40;;;20.57;;
51495;SDS011;37572;52.094;4.870;2023-09-30T07:10:58;33.38;;;19.17;;
51495;SDS011;37572;52.094;4.870;2023-09-30T07:13:25;28.08;;;17.55;;
51495;SDS011;37572;52.094;4.870;2023-09-30T07:15:50;27.92;;;17.75;;
51495;SDS011;37572;52.094;4.870;2023-09-30T07:18:16;28.83;;;17.17;;
51495;SDS011;37572;52.094;4.870;2023-09-30T07:20:41;27.80;;;17.75;;
51495;SDS011;37572;52.094;4.870;2023-09-30T07:23:06;29.27;;;18.88;;
51495;SDS011;37572;52.094;4.870;2023-09-30T07:25:34;34.03;;;18.90;;
51495;SDS011;37572;52.094;4.870;2023-09-30T07:27:59;27.58;;;17.92;;
51495;SDS011;37572;52.094;4.870;2023-09-30T07:30:25;30.95;;;18.73;;
51495;SDS011;37572;52.094;4.870;2023-09-30T07:32:52;30.40;;;18.13;;
51495;SDS011;37572;52.094;4.870;2023-09-30T07:35:18;30.70;;;19.30;;
51495;SDS011;37572;52.094;4.870;2023-09-30T07:37:43;31.60;;;18.70;;
51495;SDS011;37572;52.094;4.870;2023-09-30T07:40:09;32.60;;;20.30;;
51495;SDS011;37572;52.094;4.870;2023-09-30T07:42:36;33.97;;;19.35;;
51495;SDS011;37572;52.094;4.870;2023-09-30T07:45:01;34.58;;;19.92;;
51495;SDS011;37572;52.094;4.870;2023-09-30T07:47:29;34.55;;;21.25;;
51495;SDS011;37572;52.094;4.870;2023-09-30T07:49:56;31.23;;;19.98;;
51495;SDS011;37572;52.094;4.870;2023-09-30T07:52:21;25.63;;;17.70;;
51495;SDS011;37572;52.094;4.870;2023-09-30T07:54:46;28.17;;;17.17;;
51495;SDS011;37572;52.094;4.870;2023-09-30T07:57:12;24.38;;;18.60;;
51495;SDS011;37572;52.094;4.870;2023-09-30T07:59:37;27.93;;;17.20;;
51495;SDS011;37572;52.094;4.870;2023-09-30T08:02:02;33.07;;;18.30;;
51495;SDS011;37572;52.094;4.870;2023-09-30T08:04:29;30.10;;;17.38;;
51495;SDS011;37572;52.094;4.870;2023-09-30T08:06:55;24.10;;;15.95;;
51495;SDS011;37572;52.094;4.870;2023-09-30T08:09:21;28.23;;;17.38;;
51495;SDS011;37572;52.094;4.870;2023-09-30T08:11:48;29.08;;;16.42;;
51495;SDS011;37572;52.094;4.870;2023-09-30T08:14:15;26.55;;;16.00;;
51495;SDS011;37572;52.094;4.870;2023-09-30T08:16:40;24.13;;;15.13;;
51495;SDS011;37572;52.094;4.870;2023-09-30T08:19:05;25.17;;;14.13;;
51495;SDS011;37572;52.094;4.870;2023-09-30T08:21:31;23.35;;;14.77;;
51495;SDS011;37572;52.094;4.870;2023-09-30T08:23:56;24.25;;;13.82;;
51495;SDS011;37572;52.094;4.870;2023-09-30T08:26:22;19.38;;;13.27;;
51495;SDS011;37572;52.094;4.870;2023-09-30T08:28:47;22.17;;;12.45;;
51495;SDS011;37572;52.094;4.870;2023-09-30T08:31:13;20.05;;;11.88;;
51495;SDS011;37572;52.094;4.870;2023-09-30T08:33:39;19.67;;;12.18;;
51495;SDS011;37572;52.094;4.870;2023-09-30T08:36:06;21.17;;;11.75;;
51495;SDS011;37572;52.094;4.870;2023-09-30T08:38:38;18.60;;;12.40;;
51495;SDS011;37572;52.094;4.870;2023-09-30T08:41:05;19.85;;;11.80;;
51495;SDS011;37572;52.094;4.870;2023-09-30T08:43:33;24.92;;;12.93;;
51495;SDS011;37572;52.094;4.870;2023-09-30T08:48:29;17.23;;;10.25;;
51495;SDS011;37572;52.094;4.870;2023-09-30T08:50:58;16.83;;;10.13;;
51495;SDS011;37572;52.094;4.870;2023-09-30T08:53:24;22.02;;;11.10;;
51495;SDS011;37572;52.094;4.870;2023-09-30T08:55:53;18.92;;;10.85;;
51495;SDS011;37572;52.094;4.870;2023-09-30T08:58:19;19.35;;;10.98;;
51495;SDS011;37572;52.094;4.870;2023-09-30T09:00:49;24.00;;;11.05;;
51495;SDS011;37572;52.094;4.870;2023-09-30T09:03:15;16.08;;;9.88;;
51495;SDS011;37572;52.094;4.870;2023-09-30T09:05:43;17.67;;;9.20;;
51495;SDS011;37572;52.094;4.870;2023-09-30T09:08:08;15.90;;;8.73;;
51495;SDS011;37572;52.094;4.870;2023-09-30T09:10:34;15.05;;;8.68;;
51495;SDS011;37572;52.094;4.870;2023-09-30T09:12:59;16.75;;;9.70;;
51495;SDS011;37572;52.094;4.870;2023-09-30T09:15:26;13.25;;;8.07;;
51495;SDS011;37572;52.094;4.870;2023-09-30T09:17:55;13.98;;;8.77;;
51495;SDS011;37572;52.094;4.870;2023-09-30T09:20:21;14.68;;;8.13;;
51495;SDS011;37572;52.094;4.870;2023-09-30T09:22:49;16.25;;;8.07;;
51495;SDS011;37572;52.094;4.870;2023-09-30T09:27:48;13.85;;;7.30;;
51495;SDS011;37572;52.094;4.870;2023-09-30T09:30:17;16.30;;;7.82;;
51495;SDS011;37572;52.094;4.870;2023-09-30T09:33:00;13.77;;;6.90;;
51495;SDS011;37572;52.094;4.870;2023-09-30T09:35:27;15.60;;;8.57;;
51495;SDS011;37572;52.094;4.870;2023-09-30T09:38:03;13.25;;;7.15;;
51495;SDS011;37572;52.094;4.870;2023-09-30T09:40:31;13.88;;;7.03;;
51495;SDS011;37572;52.094;4.870;2023-09-30T09:42:58;15.32;;;7.53;;
51495;SDS011;37572;52.094;4.870;2023-09-30T09:45:28;13.13;;;6.57;;
51495;SDS011;37572;52.094;4.870;2023-09-30T09:47:55;14.60;;;7.43;;
51495;SDS011;37572;52.094;4.870;2023-09-30T09:50:21;11.50;;;6.60;;
51495;SDS011;37572;52.094;4.870;2023-09-30T09:52:48;12.00;;;6.40;;
51495;SDS011;37572;52.094;4.870;2023-09-30T09:55:18;14.85;;;7.03;;
51495;SDS011;37572;52.094;4.870;2023-09-30T09:57:47;14.18;;;7.13;;
51495;SDS011;37572;52.094;4.870;2023-09-30T10:00:23;12.68;;;6.47;;
51495;SDS011;37572;52.094;4.870;2023-09-30T10:02:50;12.95;;;6.75;;
51495;SDS011;37572;52.094;4.870;2023-09-30T10:05:17;10.23;;;5.30;;
51495;SDS011;37572;52.094;4.870;2023-09-30T10:08:02;13.40;;;6.03;;
51495;SDS011;37572;52.094;4.870;2023-09-30T10:10:30;12.05;;;5.28;;
51495;SDS011;37572;52.094;4.870;2023-09-30T10:13:01;8.55;;;4.10;;
51495;SDS011;37572;52.094;4.870;2023-09-30T10:18:00;12.93;;;4.60;;
51495;SDS011;37572;52.094;4.870;2023-09-30T10:20:35;10.90;;;3.95;;
51495;SDS011;37572;52.094;4.870;2023-09-30T10:25:42;9.13;;;3.45;;
51495;SDS011;37572;52.094;4.870;2023-09-30T10:28:40;12.85;;;4.53;;
51495;SDS011;37572;52.094;4.870;2023-09-30T10:31:09;11.98;;;4.03;;
51495;SDS011;37572;52.094;4.870;2023-09-30T10:36:31;9.02;;;2.95;;
51495;SDS011;37572;52.094;4.870;2023-09-30T10:38:59;6.85;;;3.25;;
51495;SDS011;37572;52.094;4.870;2023-09-30T10:44:51;4.53;;;1.88;;
51495;SDS011;37572;52.094;4.870;2023-09-30T10:46:52;7.55;;;3.80;;
51495;SDS011;37572;52.094;4.870;2023-09-30T10:51:50;7.22;;;2.80;;
51495;SDS011;37572;52.094;4.870;2023-09-30T10:54:22;13.90;;;3.58;;
51495;SDS011;37572;52.094;4.870;2023-09-30T10:56:51;7.10;;;3.05;;
51495;SDS011;37572;52.094;4.870;2023-09-30T10:59:22;7.45;;;2.60;;
51495;SDS011;37572;52.094;4.870;2023-09-30T11:01:49;11.68;;;3.13;;
51495;SDS011;37572;52.094;4.870;2023-09-30T11:04:15;9.45;;;3.40;;
51495;SDS011;37572;52.094;4.870;2023-09-30T11:06:41;9.63;;;3.22;;
51495;SDS011;37572;52.094;4.870;2023-09-30T11:09:07;7.30;;;2.72;;
51495;SDS011;37572;52.094;4.870;2023-09-30T11:16:59;8.30;;;2.80;;
51495;SDS011;37572;52.094;4.870;2023-09-30T11:20:02;7.90;;;3.08;;
51495;SDS011;37572;52.094;4.870;2023-09-30T11:22:20;6.93;;;2.60;;
51495;SDS011;37572;52.094;4.870;2023-09-30T11:24:46;9.07;;;3.35;;
51495;SDS011;37572;52.094;4.870;2023-09-30T11:27:11;7.03;;;2.92;;
51495;SDS011;37572;52.094;4.870;2023-09-30T11:29:37;7.80;;;3.03;;
51495;SDS011;37572;52.094;4.870;2023-09-30T11:32:22;9.13;;;3.03;;
51495;SDS011;37572;52.094;4.870;2023-09-30T11:34:48;6.20;;;2.55;;
51495;SDS011;37572;52.094;4.870;2023-09-30T11:37:14;8.90;;;3.27;;
51495;SDS011;37572;52.094;4.870;2023-09-30T11:39:40;6.82;;;2.53;;
51495;SDS011;37572;52.094;4.870;2023-09-30T11:42:14;7.93;;;3.60;;
51495;SDS011;37572;52.094;4.870;2023-09-30T11:44:45;9.82;;;3.55;;
51495;SDS011;37572;52.094;4.870;2023-09-30T11:47:15;8.25;;;3.13;;
51495;SDS011;37572;52.094;4.870;2023-09-30T11:49:42;6.95;;;2.83;;
51495;SDS011;37572;52.094;4.870;2023-09-30T11:52:13;10.07;;;3.15;;
51495;SDS011;37572;52.094;4.870;2023-09-30T11:54:44;8.05;;;3.00;;
51495;SDS011;37572;52.094;4.870;2023-09-30T11:57:11;8.48;;;2.60;;
51495;SDS011;37572;52.094;4.870;2023-09-30T11:59:37;7.85;;;2.10;;
51495;SDS011;37572;52.094;4.870;2023-09-30T12:02:06;6.60;;;2.30;;
51495;SDS011;37572;52.094;4.870;2023-09-30T12:04:33;7.00;;;2.13;;
51495;SDS011;37572;52.094;4.870;2023-09-30T12:06:59;5.80;;;2.33;;
51495;SDS011;37572;52.094;4.870;2023-09-30T12:09:25;7.53;;;2.38;;
51495;SDS011;37572;52.094;4.870;2023-09-30T12:11:52;7.22;;;2.92;;
51495;SDS011;37572;52.094;4.870;2023-09-30T12:14:19;6.85;;;2.60;;
51495;SDS011;37572;52.094;4.870;2023-09-30T12:16:45;7.07;;;2.50;;
51495;SDS011;37572;52.094;4.870;2023-09-30T12:19:12;7.90;;;2.80;;
51495;SDS011;37572;52.094;4.870;2023-09-30T12:21:41;10.45;;;2.83;;
51495;SDS011;37572;52.094;4.870;2023-09-30T12:24:07;7.50;;;2.22;;
51495;SDS011;37572;52.094;4.870;2023-09-30T12:26:34;6.85;;;2.70;;
51495;SDS011;37572;52.094;4.870;2023-09-30T12:29:01;8.70;;;3.00;;
51495;SDS011;37572;52.094;4.870;2023-09-30T12:31:27;9.77;;;2.95;;
51495;SDS011;37572;52.094;4.870;2023-09-30T12:33:52;8.27;;;2.75;;
51495;SDS011;37572;52.094;4.870;2023-09-30T12:36:18;7.70;;;2.72;;
51495;SDS011;37572;52.094;4.870;2023-09-30T12:38:44;8.00;;;2.72;;
51495;SDS011;37572;52.094;4.870;2023-09-30T12:41:09;9.60;;;3.05;;
51495;SDS011;37572;52.094;4.870;2023-09-30T12:43:35;7.93;;;2.88;;
51495;SDS011;37572;52.094;4.870;2023-09-30T12:46:00;7.47;;;2.42;;
51495;SDS011;37572;52.094;4.870;2023-09-30T12:48:26;7.70;;;2.53;;
51495;SDS011;37572;52.094;4.870;2023-09-30T12:50:51;7.73;;;2.43;;
51495;SDS011;37572;52.094;4.870;2023-09-30T12:53:16;9.15;;;2.72;;
51495;SDS011;37572;52.094;4.870;2023-09-30T12:55:42;7.60;;;2.67;;
51495;SDS011;37572;52.094;4.870;2023-09-30T12:58:08;7.68;;;2.10;;
51495;SDS011;37572;52.094;4.870;2023-09-30T13:00:34;8.05;;;2.30;;
51495;SDS011;37572;52.094;4.870;2023-09-30T13:03:00;6.97;;;1.88;;
51495;SDS011;37572;52.094;4.870;2023-09-30T13:05:26;7.03;;;2.20;;
51495;SDS011;37572;52.094;4.870;2023-09-30T13:07:52;8.98;;;2.33;;
51495;SDS011;37572;52.094;4.870;2023-09-30T13:10:17;7.10;;;2.17;;
51495;SDS011;37572;52.094;4.870;2023-09-30T13:12:44;8.20;;;2.47;;
51495;SDS011;37572;52.094;4.870;2023-09-30T13:15:09;6.43;;;2.10;;
51495;SDS011;37572;52.094;4.870;2023-09-30T13:17:35;9.32;;;2.78;;
51495;SDS011;37572;52.094;4.870;2023-09-30T13:20:00;6.53;;;2.92;;
51495;SDS011;37572;52.094;4.870;2023-09-30T13:22:30;6.85;;;2.35;;
51495;SDS011;37572;52.094;4.870;2023-09-30T13:24:55;8.27;;;2.40;;
51495;SDS011;37572;52.094;4.870;2023-09-30T13:27:20;8.50;;;2.57;;
51495;SDS011;37572;52.094;4.870;2023-09-30T13:29:46;7.13;;;3.28;;
51495;SDS011;37572;52.094;4.870;2023-09-30T13:32:12;9.50;;;2.63;;
51495;SDS011;37572;52.094;4.870;2023-09-30T13:34:39;8.57;;;2.72;;
51495;SDS011;37572;52.094;4.870;2023-09-30T13:37:04;7.40;;;2.60;;
51495;SDS011;37572;52.094;4.870;2023-09-30T13:39:30;7.38;;;2.55;;
51495;SDS011;37572;52.094;4.870;2023-09-30T13:41:56;10.10;;;3.15;;
51495;SDS011;37572;52.094;4.870;2023-09-30T13:44:21;8.73;;;3.10;;
51495;SDS011;37572;52.094;4.870;2023-09-30T13:46:47;7.77;;;2.87;;
51495;SDS011;37572;52.094;4.870;2023-09-30T13:49:12;7.65;;;2.85;;
51495;SDS011;37572;52.094;4.870;2023-09-30T13:51:38;6.90;;;2.67;;
51495;SDS011;37572;52.094;4.870;2023-09-30T13:54:04;9.07;;;2.50;;
51495;SDS011;37572;52.094;4.870;2023-09-30T13:56:29;9.35;;;2.75;;
51495;SDS011;37572;52.094;4.870;2023-09-30T13:58:55;9.27;;;3.15;;
51495;SDS011;37572;52.094;4.870;2023-09-30T14:01:22;7.45;;;2.92;;
51495;SDS011;37572;52.094;4.870;2023-09-30T14:03:47;9.23;;;3.20;;
51495;SDS011;37572;52.094;4.870;2023-09-30T14:06:13;6.50;;;2.90;;
51495;SDS011;37572;52.094;4.870;2023-09-30T14:08:39;10.38;;;3.30;;
51495;SDS011;37572;52.094;4.870;2023-09-30T14:11:07;9.23;;;3.45;;
51495;SDS011;37572;52.094;4.870;2023-09-30T14:13:33;8.20;;;3.25;;
51495;SDS011;37572;52.094;4.870;2023-09-30T14:15:59;9.50;;;3.33;;
51495;SDS011;37572;52.094;4.870;2023-09-30T14:18:24;12.77;;;3.70;;
51495;SDS011;37572;52.094;4.870;2023-09-30T14:20:49;9.80;;;3.13;;
51495;SDS011;37572;52.094;4.870;2023-09-30T14:23:15;9.18;;;2.95;;
51495;SDS011;37572;52.094;4.870;2023-09-30T14:25:40;8.00;;;2.60;;
51495;SDS011;37572;52.094;4.870;2023-09-30T14:28:06;7.35;;;3.15;;
51495;SDS011;37572;52.094;4.870;2023-09-30T14:30:32;8.45;;;2.95;;
51495;SDS011;37572;52.094;4.870;2023-09-30T14:32:58;8.70;;;3.13;;
51495;SDS011;37572;52.094;4.870;2023-09-30T14:35:23;7.93;;;3.00;;
51495;SDS011;37572;52.094;4.870;2023-09-30T14:37:49;8.55;;;3.08;;
51495;SDS011;37572;52.094;4.870;2023-09-30T14:40:14;10.25;;;3.38;;
51495;SDS011;37572;52.094;4.870;2023-09-30T14:42:41;9.10;;;3.30;;
51495;SDS011;37572;52.094;4.870;2023-09-30T14:45:07;9.80;;;3.80;;
51495;SDS011;37572;52.094;4.870;2023-09-30T14:47:33;7.53;;;2.75;;
51495;SDS011;37572;52.094;4.870;2023-09-30T14:49:58;9.52;;;3.50;;
51495;SDS011;37572;52.094;4.870;2023-09-30T14:52:26;10.25;;;3.17;;